Latest Weather Observations for Rottnest Island

IDW60801

Issued at 10:05 am WST Tuesday 29 July 2014 (issued every 30 minutes, with the page automatically refreshed every 10 minutes)

About weather observations | Map of weather stations | Latest weather observations for WA | Other Formats
Station Details ID: 009193 Name: ROTTNEST ISLAND Lat: -32.01 Lon: 115.50 Height: 43.1 m
Data from the previous 72 hours. | See also: Recent months at Rottnest Island
Date/Time
WST
Temp
°C
App
Temp
°C
Dew
Point
Rel
Hum
%
Delta-T
°C
Wind Press
QNH
hPa
Press
MSL
hPa
Rain
since 9 am
mm
Dir
 
Spd
km/h
Gust
km/h
Spd
kts
Gust
kts
29/10:00am 17.2 12.8 11.7 70 3.0 W 26 35 14 19 1024.4 1024.4 0.0
29/09:30am 17.1 12.6 10.0 63 3.7 W 24 32 13 17 1024.4 - 0.0
29/09:00am 16.2 11.2 10.9 71 2.8 W 28 39 15 21 1024.3 1024.3 0.0
29/08:30am 16.3 12.6 10.2 67 3.2 W 20 28 11 15 1023.8 - 0.0
29/08:00am 15.9 11.9 9.1 64 3.5 WSW 20 28 11 15 1023.5 1023.5 0.0
29/07:30am 15.3 11.2 10.1 71 2.7 WSW 22 32 12 17 1023.1 - 0.0
29/07:00am 15.8 11.4 10.3 70 2.9 WSW 24 32 13 17 1022.8 1022.8 0.0
29/06:30am 16.0 10.5 10.5 70 2.9 W 30 41 16 22 1022.6 - 0.0
29/06:00am 16.5 12.7 9.2 62 3.8 W 19 32 10 17 1022.3 1022.3 0.0
29/05:30am 16.6 11.4 8.8 60 4.0 W 26 33 14 18 1022.2 - 0.0
29/05:00am 16.3 11.6 9.3 63 3.6 W 24 35 13 19 1022.0 1022.0 0.0
29/04:30am 16.5 12.9 10.4 67 3.2 W 20 32 11 17 1022.1 - 0.0
29/04:00am 16.7 11.8 9.9 64 3.6 W 26 35 14 19 1022.1 1022.1 0.0
29/03:30am 16.7 12.0 9.4 62 3.8 W 24 30 13 16 1022.1 - 0.0
29/03:00am 16.4 11.4 9.6 64 3.5 W 26 32 14 17 1022.3 1022.3 0.0
29/02:30am 16.4 11.8 9.6 64 3.6 W 24 32 13 17 1022.3 - 0.0
29/02:00am 16.6 12.1 10.0 65 3.5 W 24 32 13 17 1022.3 1022.3 0.0
29/01:30am 16.6 11.0 8.6 59 4.1 WNW 28 35 15 19 1022.5 - 0.0
29/01:00am 16.7 11.7 9.4 62 3.8 W 26 35 14 19 1022.7 1022.7 0.0
29/12:30am 16.8 12.2 10.9 68 3.2 W 26 35 14 19 1022.8 - 0.0
29/12:00am 16.7 12.4 10.8 68 3.1 W 24 33 13 18 1022.6 1022.6 0.0
 
Date/Time
WST
Temp
°C
App
Temp
°C
Dew
Point
Rel
Hum
%
Delta-T
°C
Wind Press
QNH
hPa
Press
MSL
hPa
Rain
since 9 am
mm
Dir
 
Spd
km/h
Gust
km/h
Spd
kts
Gust
kts
28/11:30pm 16.5 12.4 11.6 73 2.7 W 24 32 13 17 1022.8 - 0.0
28/11:00pm 16.7 12.5 11.2 70 3.0 W 24 35 13 19 1022.9 1022.9 0.0
28/10:30pm 16.6 11.8 11.7 73 2.7 W 28 35 15 19 1023.2 - 0.0
28/10:00pm 16.7 11.6 10.5 67 3.3 W 28 33 15 18 1023.2 1023.2 0.0
28/09:30pm 16.7 11.7 10.8 68 3.2 W 28 35 15 19 1023.4 - 0.0
28/09:00pm 16.1 11.7 11.7 75 2.4 WSW 26 37 14 20 1023.3 1023.3 0.0
28/08:30pm 16.7 11.7 11.0 69 3.1 W 28 35 15 19 1023.2 - 0.0
28/08:00pm 16.4 12.3 11.3 72 2.7 W 24 39 13 21 1023.2 1023.2 0.0
28/07:30pm 16.3 11.6 10.8 70 2.9 W 26 37 14 20 1023.3 - 0.0
28/07:00pm 16.2 12.0 11.2 72 2.7 W 24 32 13 17 1023.0 1023.0 0.0
28/06:30pm 16.4 11.3 10.5 68 3.1 W 28 39 15 21 1022.8 - 0.0
28/06:00pm 16.1 10.4 11.3 73 2.6 W 32 43 17 23 1022.6 1022.6 0.0
28/05:30pm 16.9 11.0 10.5 66 3.4 W 32 39 17 21 1022.2 - 0.0
28/05:00pm 17.0 11.8 10.1 64 3.6 W 28 37 15 20 1022.3 1022.3 0.0
28/04:30pm 16.8 12.2 10.9 68 3.2 W 26 35 14 19 1022.2 - 0.0
28/04:00pm 17.5 11.6 8.9 57 4.4 WNW 30 39 16 21 1021.9 1021.9 0.0
28/03:30pm 17.8 12.2 8.6 55 4.8 WNW 28 35 15 19 1021.7 - 0.0
28/03:00pm 17.9 12.2 8.2 53 5.0 WNW 28 35 15 19 1021.6 1021.6 0.0
28/02:30pm 18.7 13.3 9.5 55 4.9 WNW 28 32 15 17 1021.9 - 0.0
28/02:00pm 18.8 13.0 9.6 55 4.9 WNW 30 35 16 19 1022.1 1022.1 0.0
28/01:30pm 18.7 13.1 10.0 57 4.6 WNW 30 37 16 20 1022.3 - 0.0
28/01:00pm 18.3 12.2 9.6 57 4.6 W 32 37 17 20 1022.5 1022.5 0.0
28/12:30pm 18.4 12.5 9.2 55 4.8 W 30 37 16 20 1023.0 - 0.0
28/12:00pm 18.5 13.0 9.0 54 4.9 W 28 37 15 20 1023.3 1023.3 0.0
28/11:30am 17.7 13.7 11.7 68 3.3 WSW 24 32 13 17 1023.5 - 0.0
28/11:00am 18.3 12.8 10.4 60 4.2 W 30 37 16 20 1023.6 1023.6 0.0
28/10:30am 17.8 12.0 9.4 58 4.4 W 30 41 16 22 1023.6 - 0.0
28/10:00am 16.9 11.4 10.5 66 3.4 W 30 41 16 22 1023.6 1023.6 0.0
28/09:30am 17.1 11.0 9.8 62 3.8 WNW 32 39 17 21 1023.3 - 0.0
28/09:00am 16.4 11.7 10.7 69 3.0 W 26 33 14 18 1023.1 1023.1 0.6
28/08:30am 16.1 10.7 10.8 71 2.8 W 30 41 16 22 1022.9 - 0.6
28/08:00am 15.5 11.1 10.3 71 2.7 WSW 24 35 13 19 1022.4 1022.4 0.6
28/07:30am 15.3 10.8 10.1 71 2.7 WSW 24 33 13 18 1022.1 - 0.4
28/07:00am 14.9 9.3 10.3 74 2.4 W 30 43 16 23 1022.0 1022.0 0.4
28/06:30am 15.9 10.5 9.6 66 3.3 W 28 41 15 22 1021.8 - 0.4
28/06:00am 15.9 9.8 9.6 66 3.3 W 32 39 17 21 1021.6 1021.6 0.4
28/05:30am 16.0 10.0 8.5 61 3.8 W 30 43 16 23 1021.4 - 0.4
28/05:00am 16.3 9.8 8.3 59 4.1 W 32 41 17 22 1021.5 1021.5 0.4
28/04:30am 15.9 10.7 7.4 57 4.2 W 24 37 13 20 1021.5 - 0.4
28/04:00am 16.1 9.6 8.3 60 3.9 W 32 43 17 23 1021.4 1021.4 0.4
28/03:30am 16.4 10.1 9.8 65 3.5 W 33 46 18 25 1021.7 - 0.4
28/03:00am 16.3 10.7 8.8 61 3.8 W 28 39 15 21 1021.8 1021.8 0.4
28/02:30am 16.2 10.0 7.7 57 4.3 W 30 41 16 22 1022.0 - 0.4
28/02:00am 16.3 10.5 8.0 58 4.2 W 28 39 15 21 1021.9 1021.9 0.4
28/01:30am 15.9 10.8 7.7 58 4.1 W 24 35 13 19 1021.9 - 0.4
28/01:00am 16.0 9.9 6.7 54 4.5 W 28 41 15 22 1022.1 1022.1 0.4
28/12:30am 16.2 10.1 8.2 59 4.1 W 30 41 16 22 1022.1 - 0.4
28/12:00am 16.2 9.6 8.7 61 3.8 W 33 43 18 23 1022.2 1022.2 0.4
 
Date/Time
WST
Temp
°C
App
Temp
°C
Dew
Point
Rel
Hum
%
Delta-T
°C
Wind Press
QNH
hPa
Press
MSL
hPa
Rain
since 9 am
mm
Dir
 
Spd
km/h
Gust
km/h
Spd
kts
Gust
kts
27/11:30pm 16.2 10.4 9.6 65 3.4 W 30 37 16 20 1022.4 - 0.4
27/11:00pm 16.4 10.6 9.3 63 3.7 W 30 41 16 22 1022.6 1022.6 0.4
27/10:30pm 16.3 10.8 9.0 62 3.8 W 28 41 15 22 1022.5 - 0.4
27/10:00pm 16.3 10.7 7.3 55 4.5 W 26 37 14 20 1022.5 1022.5 0.4
27/09:30pm 16.3 10.1 7.8 57 4.3 W 30 41 16 22 1022.7 - 0.4
27/09:00pm 15.9 10.6 10.0 68 3.1 W 28 41 15 22 1022.6 1022.6 0.4
27/08:30pm 16.3 11.9 9.0 62 3.8 W 22 32 12 17 1022.9 - 0.4
27/08:00pm 15.9 11.6 9.3 65 3.4 W 22 30 12 16 1022.7 1022.7 0.4
27/07:30pm 16.2 12.0 9.8 66 3.4 W 22 32 12 17 1022.4 - 0.4
27/07:00pm 16.1 12.2 9.5 65 3.4 W 20 30 11 16 1022.2 1022.2 0.4
27/06:30pm 16.3 11.1 10.2 67 3.2 WSW 28 39 15 21 1021.9 - 0.4
27/06:00pm 16.2 11.7 8.7 61 3.8 W 22 30 12 16 1021.6 1021.6 0.4
27/05:30pm 16.5 11.2 9.9 65 3.5 WSW 28 37 15 20 1021.4 - 0.4
27/05:00pm 17.1 11.4 8.5 57 4.4 W 28 35 15 19 1021.1 1021.1 0.4
27/04:30pm 17.2 12.5 9.1 59 4.2 W 24 33 13 18 1020.9 - 0.4
27/04:00pm 17.2 11.6 10.1 63 3.7 W 30 39 16 21 1020.8 1020.8 0.4
27/03:30pm 17.6 11.6 10.2 62 3.9 W 32 41 17 22 1020.7 - 0.4
27/03:00pm 17.5 12.4 11.8 69 3.1 W 30 39 16 21 1020.4 1020.4 0.4
27/02:30pm 17.9 13.0 11.2 65 3.6 W 28 37 15 20 1020.3 - 0.4
27/02:00pm 17.9 12.2 11.2 65 3.6 W 32 41 17 22 1020.3 1020.3 0.4
27/01:30pm 17.7 12.3 12.8 73 2.7 W 33 44 18 24 1020.4 - 0.4
27/01:21pm 16.7 10.3 12.0 74 2.6 WSW 37 44 20 24 1020.6 - 0.4
27/01:00pm 18.5 12.8 11.3 63 3.9 W 32 44 17 24 1020.7 1020.7 0.4
27/12:30pm 18.0 12.6 12.2 69 3.2 W 32 43 17 23 1021.0 - 0.4
27/12:00pm 16.3 13.5 12.5 78 2.1 WNW 19 26 10 14 1021.3 1021.3 0.4
27/11:44am 15.2 10.3 11.2 77 2.1 W 28 46 15 25 1021.8 - 0.4
27/11:30am 15.7 10.6 10.7 72 2.7 WSW 28 39 15 21 1021.8 - 0.4
27/11:02am 14.3 9.7 12.2 87 1.1 WSW 28 46 15 25 1022.1 - 0.4
27/11:00am 14.0 8.5 11.7 86 1.2 WSW 32 46 17 25 1022.1 1022.1 0.4
27/10:38am 15.6 11.0 12.4 81 1.8 WSW 28 48 15 26 1022.2 - 0.2
27/10:30am 15.4 10.9 12.7 84 1.5 WSW 28 35 15 19 1022.2 - 0.2
27/10:00am 14.8 9.4 12.3 85 1.4 WSW 32 44 17 24 1022.0 1022.0 0.2
27/09:30am 17.1 11.6 11.8 71 2.9 W 32 37 17 20 1021.8 - 0.0
27/09:00am 16.0 10.2 11.6 75 2.4 WNW 33 44 18 24 1021.4 1021.4 4.8
27/08:30am 16.0 10.4 11.6 75 2.4 WNW 32 41 17 22 1021.1 - 4.8
27/08:00am 15.5 9.3 11.3 76 2.2 WNW 35 46 19 25 1020.9 1020.9 4.8
27/07:30am 15.1 10.1 12.1 82 1.6 W 30 43 16 23 1020.6 - 4.8
27/07:12am 14.3 8.8 11.8 85 1.3 W 32 50 17 27 1020.4 - 4.8
27/07:00am 14.3 7.7 11.5 83 1.5 WSW 37 54 20 29 1020.4 1020.4 4.6
27/06:54am 15.4 7.8 10.6 73 2.5 W 41 54 22 29 1020.3 - 3.6
27/06:53am 16.0 9.9 10.5 70 2.9 WNW 33 54 18 29 1020.3 - 3.6
27/06:30am 16.0 9.9 9.7 66 3.3 WNW 32 43 17 23 1019.8 - 3.6
27/06:00am 16.3 9.8 8.8 61 3.8 WNW 33 43 18 23 1019.8 1019.8 3.6
27/05:30am 16.1 9.3 7.8 58 4.2 WNW 33 43 18 23 1019.5 - 3.6
27/05:00am 15.9 9.4 8.2 60 3.9 WNW 32 39 17 21 1019.5 1019.5 3.6
27/04:30am 15.9 10.3 8.6 62 3.7 W 28 39 15 21 1019.6 - 3.6
27/04:00am 16.2 9.5 8.2 59 4.0 W 33 46 18 25 1019.9 1019.9 3.6
27/03:30am 16.1 9.4 7.3 56 4.4 W 32 44 17 24 1019.7 - 3.6
27/03:00am 15.7 9.6 6.4 54 4.5 W 28 39 15 21 1019.8 1019.8 3.6
27/02:30am 15.8 10.1 8.3 61 3.8 WSW 28 41 15 22 1019.9 - 3.6
27/02:00am 15.6 8.9 5.8 52 4.7 W 30 39 16 21 1019.9 1019.9 3.6
27/01:30am 16.2 9.4 6.9 54 4.6 W 32 43 17 23 1019.9 - 3.6
27/01:00am 16.0 8.0 5.6 50 5.0 W 37 52 20 28 1020.0 1020.0 3.6
27/12:51am 16.2 9.2 5.8 50 5.0 W 32 52 17 28 1020.1 - 3.6
27/12:30am 16.1 10.2 7.3 56 4.4 W 28 39 15 21 1020.1 - 3.6
27/12:00am 16.1 9.3 6.8 54 4.6 W 32 41 17 22 1019.9 1019.9 3.6
 
Date/Time
WST
Temp
°C
App
Temp
°C
Dew
Point
Rel
Hum
%
Delta-T
°C
Wind Press
QNH
hPa
Press
MSL
hPa
Rain
since 9 am
mm
Dir
 
Spd
km/h
Gust
km/h
Spd
kts
Gust
kts
26/11:30pm 15.9 9.6 5.8 51 4.9 W 28 35 15 19 1019.9 - 3.6
26/11:04pm 16.1 9.6 6.3 52 4.8 W 30 48 16 26 1020.0 - 3.6
26/11:00pm 15.9 9.0 4.6 47 5.3 W 30 39 16 21 1019.9 1019.9 3.6
26/10:30pm 15.8 9.2 6.0 52 4.7 W 30 39 16 21 1019.8 - 3.6
26/10:00pm 15.9 10.4 7.7 58 4.1 W 26 37 14 20 1019.8 1019.8 3.6
26/09:30pm 15.8 9.8 5.1 49 5.1 W 26 35 14 19 1019.6 - 3.6
26/09:00pm 15.8 9.7 6.5 54 4.5 W 28 35 15 19 1019.6 1019.6 3.6
26/08:30pm 15.7 9.6 5.0 49 5.1 W 26 37 14 20 1019.5 - 3.6
26/08:00pm 15.6 9.5 6.6 55 4.4 W 28 35 15 19 1019.2 1019.2 3.6
26/07:30pm 15.7 10.9 7.5 58 4.1 WSW 22 33 12 18 1019.0 - 3.6
26/07:00pm 15.6 11.3 7.9 60 3.9 WSW 20 35 11 19 1018.7 1018.7 3.6
26/06:30pm 15.3 10.7 8.3 63 3.5 WSW 22 30 12 16 1018.4 - 3.6
26/06:00pm 15.4 11.3 7.7 60 3.8 W 19 22 10 12 1017.9 1017.9 3.6
26/05:30pm 15.7 11.5 8.2 61 3.8 WSW 20 26 11 14 1017.6 - 3.6
26/05:00pm 16.3 11.6 7.8 57 4.3 WSW 22 28 12 15 1017.3 1017.3 3.6
26/04:30pm 15.9 10.7 8.9 63 3.6 WSW 26 32 14 17 1017.3 - 3.6
26/04:00pm 16.7 11.0 9.9 64 3.6 SW 30 39 16 21 1017.2 1017.2 3.6
26/03:30pm 17.0 10.9 9.9 63 3.7 WSW 32 41 17 22 1016.7 - 3.6
26/03:00pm 16.2 10.3 10.5 69 3.0 WSW 32 43 17 23 1016.2 1016.1 3.6
26/02:53pm 16.6 10.9 11.1 70 3.0 WSW 32 50 17 27 1016.1 - 3.6
26/02:30pm 16.8 10.5 11.1 69 3.1 WSW 35 46 19 25 1016.0 - 3.6
26/02:00pm 16.1 9.2 11.7 75 2.4 WSW 39 50 21 27 1015.6 1015.5 3.6
26/01:30pm 15.9 10.0 13.6 86 1.3 WSW 37 44 20 24 1015.6 - 3.6
26/01:00pm 14.4 7.2 13.0 91 0.8 WSW 43 61 23 33 1015.8 1015.7 3.6
26/12:57pm 15.0 8.9 12.9 87 1.2 WSW 37 61 20 33 1015.6 - 3.4
26/12:30pm 15.5 8.3 13.7 89 1.0 WSW 44 56 24 30 1015.6 - 3.4
26/12:21pm 15.3 9.3 13.3 88 1.1 WSW 37 56 20 30 1015.6 - 3.4
26/12:00pm 16.0 10.7 14.2 89 1.0 WSW 35 52 19 28 1015.3 1015.2 3.2
26/11:30am 15.7 10.5 14.4 92 0.7 W 35 50 19 27 1015.3 - 3.0
26/11:14am 15.4 7.2 14.1 92 0.7 W 50 69 27 37 1015.4 - 3.0
26/11:00am 15.2 7.7 13.9 92 0.7 WSW 46 63 25 34 1015.4 1015.3 2.8
26/10:41am 15.6 8.5 14.1 91 0.9 WSW 44 54 24 29 1015.2 - 2.8
26/10:30am 16.3 8.6 14.3 88 1.1 WNW 48 67 26 36 1015.1 - 1.0
26/10:26am 16.6 7.6 13.9 84 1.5 WNW 54 67 29 36 1015.2 - 0.0

Other Formats:

Comma delimited format used in spreadsheet applications
http://www.bom.gov.au/fwo/IDW60801/IDW60801.94602.axf

JavaScript Object Notation format (JSON) in row-major order
http://www.bom.gov.au/fwo/IDW60801/IDW60801.94602.json